This is the latest recevied weather packets stored in our database for station/object WY1B. If no packets are shown the sender has not sent any weather packets the latest 10 day(s).
| Time | Temp. | Humidity | Pressure | Rain* | Wind** | Luminosity | Snow |
|---|---|---|---|---|---|---|---|
| 1787945316 | 45° C | 18% | 1005.9 hPa | 0 mm | - | 943 W/m² | - |
| 1787945011 | 45° C | 18% | 1006.1 hPa | 0 mm | - | 948 W/m² | - |
| 1787944709 | 45° C | 18% | 1006.1 hPa | 0 mm | - | 943 W/m² | - |
| 1787944405 | 45.56° C | 18% | 1006.1 hPa | 0 mm | - | 869 W/m² | - |
| 1787944099 | 46.11° C | 18% | 1006.4 hPa | 0 mm | - | 900 W/m² | - |
| 1787943794 | 45° C | 18% | 1006.3 hPa | 0 mm | - | 912 W/m² | - |
| 1787943490 | 44.44° C | 19% | 1006.4 hPa | 0 mm | - | 926 W/m² | - |
| 1787943185 | 45° C | 19% | 1006.6 hPa | 0 mm | - | 919 W/m² | - |
| 1787942884 | 44.44° C | 19% | 1006.3 hPa | 0 mm | - | 918 W/m² | - |
| 1787942581 | 44.44° C | 19% | 1006.6 hPa | 0 mm | - | 910 W/m² | - |
| 1787942280 | 43.89° C | 19% | 1006.6 hPa | 0 mm | - | 891 W/m² | - |
| 1787941975 | 43.33° C | 20% | 1006.5 hPa | 0 mm | - | 830 W/m² | - |
| 1787941675 | 43.89° C | 20% | 1006.7 hPa | 0 mm | - | 590 W/m² | - |
| 1787941369 | 43.89° C | 19% | 1006.7 hPa | 0 mm | - | 718 W/m² | - |
| 1787941068 | 42.78° C | 20% | 1006.7 hPa | 0 mm | - | 841 W/m² | - |
| 1787940768 | 42.78° C | 21% | 1007 hPa | 0 mm | - | 894 W/m² | - |
| 1787940465 | 42.22° C | 21% | 1007 hPa | 0 mm | - | 907 W/m² | - |
| 1787940161 | 42.78° C | 20% | 1006.9 hPa | 0 mm | - | 782 W/m² | - |
| 1787939860 | 42.78° C | 21% | 1007 hPa | 0 mm | - | 680 W/m² | - |
| 1787939555 | 43.33° C | 20% | 1007.1 hPa | 0 mm | - | 662 W/m² | - |
| 1787939249 | 42.78° C | 20% | 1007.1 hPa | 0 mm | - | 762 W/m² | - |
| 1787938944 | 42.22° C | 21% | 1007 hPa | 0 mm | - | 801 W/m² | - |
| 1787938643 | 41.67° C | 23% | 1007.2 hPa | 0 mm | - | 814 W/m² | - |
| 1787938340 | 40.56° C | 23% | 1007 hPa | 0 mm | - | 721 W/m² | - |
| 1787938034 | 40.56° C | 24% | 1007.2 hPa | 0 mm | - | 628 W/m² | - |
* Rain latest hour (hover to see other rain measurements)
** Current wind speed in m/s (hover to see current wind gust speed)